KMIE/MIE METAR and TAF weather

Enter ICAO airport designator
Station Type Date Time Source
KMIE METAR 2022/06/27 08:53 UTC NOAA

KMIE 270853Z AUTO 33006KT 10SM CLR 16/12 A3014 RMK AO2 SLP198 T01610122 53004


Station Type Date Time Source
KMIE Decoded METAR 2022/06/27 08:53 UTC NOAA

MUNCIE DELAWARE JOHNSON, IN, United States (KMIE) 40-14N 85-24W 285M
Jun 27, 2022 - 04:53 AM EDT / 2022.06.27 0853 UTC
Wind: from the NNW (330 degrees) at 7 MPH (6 KT):0
Visibility: 10 mile(s):0
Sky conditions: clear
Temperature: 61.0 F (16.1 C)
Dew Point: 54.0 F (12.2 C)
Relative Humidity: 77%
Pressure (altimeter): 30.14 in. Hg (1020 hPa)
Pressure tendency: 0.01 inches (0.4 hPa) higher than three hours ago
ob: KMIE 270853Z AUTO 33006KT 10SM CLR 16/12 A3014 RMK AO2 SLP198 T01610122 53004
cycle: 9

Station Type Date Time Source
KMIE TAF UTC NOAA

Error!

Example: see airport list